createdAt,value
2023-05-10T18:32:11.856Z,24.00
2023-05-10T18:34:39.807Z,6.60
2023-05-10T18:37:08.079Z,6.25
2023-05-10T18:39:38.107Z,4.60
2023-05-10T18:42:07.372Z,7.85
2023-05-10T18:47:02.827Z,15.70
2023-05-10T18:49:32.163Z,7.53
2023-05-10T18:52:00.053Z,15.50
2023-05-10T18:54:27.929Z,19.23
2023-05-10T18:56:57.322Z,20.95
2023-05-10T18:59:27.724Z,27.17
2023-05-10T19:01:57.104Z,6.53
2023-05-10T19:04:25.649Z,13.27
2023-05-10T19:06:55.915Z,16.33
2023-05-10T19:09:24.255Z,13.50
2023-05-10T19:11:52.661Z,20.50
2023-05-10T19:14:20.684Z,10.40
2023-05-10T19:16:49.505Z,15.48
2023-05-10T19:19:20.088Z,15.13
2023-05-10T19:21:48.383Z,2.92
2023-05-10T19:24:19.616Z,2.25
2023-05-10T19:26:48.694Z,5.60
2023-05-10T19:29:16.764Z,2.20
2023-05-10T19:31:44.680Z,1.90
2023-05-10T19:34:12.640Z,1.98
2023-05-10T19:36:40.579Z,1.85
2023-05-10T19:39:08.417Z,1.75
2023-05-10T19:41:37.761Z,2.30
2023-05-10T19:46:33.441Z,10.70
2023-05-10T19:49:01.326Z,4.72
2023-05-10T19:51:29.245Z,4.80
2023-05-10T19:53:57.255Z,2.75
2023-05-10T19:56:26.780Z,4.32
2023-05-10T19:58:56.080Z,5.50
2023-05-10T20:03:51.685Z,4.57
2023-05-10T20:06:19.543Z,7.32
2023-05-10T20:08:47.352Z,4.10
2023-05-10T20:11:15.176Z,5.03
2023-05-10T20:13:42.994Z,4.45
2023-05-10T20:16:12.268Z,6.30
2023-05-10T20:21:07.899Z,4.80
2023-05-10T20:23:35.767Z,7.97
2023-05-10T20:26:03.694Z,7.05
2023-05-10T20:28:31.539Z,9.50
2023-05-10T20:31:00.536Z,6.80
2023-05-10T20:33:30.583Z,7.35
2023-05-10T20:35:58.592Z,6.47
2023-05-10T20:38:26.437Z,7.60
2023-05-10T20:40:54.244Z,8.65
2023-05-10T20:43:22.109Z,7.93
2023-05-10T20:45:49.982Z,8.02
2023-05-10T20:48:19.721Z,8.50
2023-05-10T20:50:48.946Z,7.78
2023-05-10T20:53:18.481Z,8.57
2023-05-10T20:58:13.921Z,8.45
2023-05-10T21:00:42.070Z,9.65
2023-05-10T21:03:09.922Z,8.63
2023-05-10T21:05:37.783Z,8.70
2023-05-10T21:08:07.060Z,9.48
2023-05-10T21:13:02.686Z,8.52
2023-05-10T21:15:30.477Z,9.55
2023-05-10T21:17:58.347Z,9.30
2023-05-10T21:20:26.256Z,9.52
2023-05-10T21:22:54.060Z,8.90
2023-05-10T21:25:23.683Z,8.85
2023-05-10T21:27:51.525Z,7.97
2023-05-10T21:30:20.399Z,8.77
2023-05-10T21:32:48.241Z,7.53
2023-05-10T21:35:16.292Z,7.28
2023-05-10T21:37:44.172Z,6.97
2023-05-10T21:40:13.349Z,6.95
2023-05-10T21:42:42.534Z,6.60
2023-05-10T21:45:10.881Z,6.38
2023-05-10T21:47:38.682Z,6.30
2023-05-10T21:50:09.873Z,5.63
2023-05-10T21:52:37.715Z,6.13
2023-05-10T21:55:08.435Z,5.00
2023-05-10T21:57:36.983Z,5.07
2023-05-10T22:00:08.130Z,5.15
2023-05-10T22:02:35.996Z,5.60
2023-05-10T22:05:04.590Z,4.80
2023-05-10T22:07:33.194Z,4.95
2023-05-10T22:10:01.162Z,4.55
2023-05-10T22:12:28.980Z,4.40
2023-05-10T22:15:09.338Z,4.68
2023-05-10T22:17:40.397Z,5.18
2023-05-10T22:20:10.245Z,5.05
2023-05-10T22:22:38.082Z,5.50
2023-05-10T22:25:07.253Z,5.93
2023-05-10T22:27:35.211Z,5.90
2023-05-10T22:30:03.320Z,4.35
2023-05-10T22:32:32.603Z,5.38
2023-05-10T22:37:29.487Z,4.63
2023-05-10T22:39:57.392Z,5.05
2023-05-10T22:42:25.296Z,4.72
2023-05-10T22:44:53.242Z,3.90
2023-05-10T22:47:21.105Z,3.90
2023-05-10T22:49:48.949Z,4.05
2023-05-10T22:52:18.131Z,3.70
2023-05-10T22:54:45.948Z,4.13
2023-05-10T22:57:13.788Z,5.07
2023-05-10T22:59:42.349Z,5.75
2023-05-10T23:02:10.627Z,4.78
2023-05-10T23:04:38.478Z,6.20
2023-05-10T23:07:06.384Z,5.82
2023-05-10T23:09:35.704Z,5.35
2023-05-10T23:14:31.179Z,5.75
2023-05-10T23:16:58.995Z,6.10
2023-05-10T23:19:26.879Z,5.53
2023-05-10T23:21:54.720Z,5.70
2023-05-10T23:24:22.533Z,7.20
2023-05-10T23:26:51.713Z,8.25
2023-05-10T23:29:19.504Z,8.25
2023-05-10T23:31:49.592Z,6.43
2023-05-10T23:34:17.462Z,7.43
2023-05-10T23:36:45.276Z,6.78
2023-05-10T23:39:13.495Z,7.18
2023-05-10T23:41:41.376Z,7.15
2023-05-10T23:44:10.533Z,6.55
2023-05-10T23:46:38.331Z,6.32
2023-05-10T23:49:06.165Z,6.80
2023-05-10T23:51:33.992Z,7.97
2023-05-10T23:54:02.072Z,6.32
2023-05-10T23:56:29.865Z,6.13
2023-05-10T23:58:57.669Z,7.15
